createdAt,value
2023-04-29T00:00:21.281Z,1.10
2023-04-29T00:02:49.712Z,0.90
2023-04-29T00:05:19.702Z,0.90
2023-04-29T00:07:48.125Z,0.90
2023-04-29T00:10:16.369Z,1.00
2023-04-29T00:12:44.566Z,0.90
2023-04-29T00:15:12.825Z,0.90
2023-04-29T00:17:41.157Z,0.90
2023-04-29T00:20:10.548Z,0.90
2023-04-29T00:22:40.275Z,0.90
2023-04-29T00:25:09.278Z,0.80
2023-04-29T00:27:37.558Z,0.80
2023-04-29T00:30:06.783Z,0.70
2023-04-29T00:32:35.196Z,0.80
2023-04-29T00:35:03.453Z,0.70
2023-04-29T00:37:31.640Z,0.70
2023-04-29T00:40:01.406Z,0.70
2023-04-29T00:42:30.497Z,0.70
2023-04-29T00:44:59.991Z,0.70
2023-04-29T00:47:28.137Z,0.70
2023-04-29T00:49:56.367Z,0.60
2023-04-29T00:52:24.795Z,0.60
2023-04-29T00:54:53.653Z,0.60
2023-04-29T00:57:23.694Z,0.70
2023-04-29T00:59:51.923Z,0.70
2023-04-29T01:02:20.331Z,0.80
2023-04-29T01:04:48.870Z,0.70
2023-04-29T01:07:18.785Z,0.50
2023-04-29T01:09:55.102Z,0.70
2023-04-29T01:12:27.995Z,0.70
2023-04-29T01:14:59.411Z,0.80
2023-04-29T01:17:29.101Z,0.70
2023-04-29T01:19:58.289Z,0.70
2023-04-29T01:22:26.461Z,0.60
2023-04-29T01:24:56.128Z,0.70
2023-04-29T01:27:29.903Z,0.60
2023-04-29T01:30:01.330Z,0.50
2023-04-29T01:32:34.428Z,0.40
2023-04-29T01:35:08.685Z,0.40
2023-04-29T01:37:41.999Z,0.40
2023-04-29T01:40:15.062Z,0.40
2023-04-29T01:42:46.738Z,0.30
2023-04-29T01:45:16.548Z,0.30
2023-04-29T01:47:45.348Z,0.20
2023-04-29T01:50:13.687Z,0.20
2023-04-29T01:52:41.812Z,0.20
2023-04-29T01:55:11.155Z,0.20
2023-04-29T01:57:41.115Z,0.10
2023-04-29T02:00:10.332Z,0.10
2023-04-29T02:02:38.642Z,0.10
2023-04-29T02:05:07.428Z,0.00
2023-04-29T02:07:35.725Z,-0.10
2023-04-29T02:10:04.116Z,-0.10
2023-04-29T02:12:32.246Z,-0.20
2023-04-29T02:15:01.895Z,-0.10
2023-04-29T02:17:30.144Z,-0.20
2023-04-29T02:20:00.174Z,-0.10
2023-04-29T02:22:28.350Z,-0.20
2023-04-29T02:24:56.651Z,-0.20
2023-04-29T02:27:24.841Z,-0.20
2023-04-29T02:29:53.165Z,-0.20
2023-04-29T02:32:22.896Z,-0.30
2023-04-29T02:34:51.947Z,-0.30
2023-04-29T02:37:20.117Z,-0.30
2023-04-29T02:39:48.330Z,-0.30
2023-04-29T02:42:16.508Z,-0.40
2023-04-29T02:44:44.837Z,-0.30
2023-04-29T02:47:13.203Z,-0.30
2023-04-29T02:49:42.790Z,-0.40
2023-04-29T02:52:11.338Z,-0.50
2023-04-29T02:54:39.416Z,-0.40
2023-04-29T02:57:08.137Z,-0.40
2023-04-29T02:59:36.530Z,-0.40
2023-04-29T03:02:04.896Z,-0.40
2023-04-29T03:04:33.264Z,-0.40
2023-04-29T03:07:02.974Z,-0.40
2023-04-29T03:09:32.227Z,-0.30
2023-04-29T03:12:00.415Z,-0.30
2023-04-29T03:14:28.607Z,-0.30
2023-04-29T03:16:58.050Z,-0.30
2023-04-29T03:19:26.235Z,-0.20
2023-04-29T03:21:54.511Z,-0.20
2023-04-29T03:24:24.252Z,-0.20
2023-04-29T03:26:52.407Z,-0.20
2023-04-29T03:29:20.762Z,-0.20
2023-04-29T03:31:49.064Z,-0.10
2023-04-29T03:34:17.325Z,-0.10
2023-04-29T03:36:48.072Z,0.20
2023-04-29T03:39:16.212Z,0.30
2023-04-29T03:41:45.939Z,0.20
2023-04-29T03:44:14.116Z,0.20
2023-04-29T03:46:42.627Z,0.20
2023-04-29T03:49:10.864Z,0.20
2023-04-29T03:51:39.093Z,0.20
2023-04-29T03:54:08.572Z,0.20
2023-04-29T03:56:36.655Z,0.30
2023-04-29T03:59:06.311Z,0.30
2023-04-29T04:01:34.784Z,0.40
2023-04-29T04:04:03.181Z,0.40
2023-04-29T04:06:31.522Z,0.50
2023-04-29T04:08:59.891Z,0.60
2023-04-29T04:11:28.060Z,0.80
2023-04-29T04:13:56.236Z,1.10
2023-04-29T04:16:25.938Z,1.40
2023-04-29T04:18:54.373Z,1.60
2023-04-29T04:21:22.598Z,1.90
2023-04-29T04:23:51.373Z,2.20
2023-04-29T04:26:20.748Z,2.40
2023-04-29T04:28:49.179Z,2.70
2023-04-29T04:31:17.453Z,2.80
2023-04-29T04:33:47.084Z,3.10
2023-04-29T04:36:15.209Z,3.40
2023-04-29T04:38:43.596Z,3.90
2023-04-29T04:41:11.798Z,4.00
2023-04-29T04:43:41.072Z,4.00
2023-04-29T04:46:12.854Z,4.20
2023-04-29T04:48:41.363Z,4.00
2023-04-29T04:51:11.485Z,3.90
2023-04-29T04:53:39.964Z,4.40
2023-04-29T04:56:08.661Z,4.60
2023-04-29T04:58:36.935Z,4.90
2023-04-29T05:01:08.307Z,5.10
2023-04-29T05:03:37.263Z,5.10
2023-04-29T05:06:08.341Z,5.60
2023-04-29T05:23:47.244Z,6.70
2023-04-29T05:26:17.914Z,6.80
2023-04-29T05:28:46.054Z,6.60
2023-04-29T05:44:04.815Z,7.00
2023-04-29T05:46:33.192Z,7.20
2023-04-29T06:44:29.876Z,9.40
2023-04-29T06:49:27.695Z,9.60
2023-04-29T06:51:55.918Z,9.70
2023-04-29T06:54:27.881Z,9.20
2023-04-29T06:56:56.166Z,9.20
2023-04-29T06:59:24.524Z,9.30
2023-04-29T07:01:57.071Z,9.20
2023-04-29T07:04:25.289Z,9.40
2023-04-29T07:06:54.246Z,9.80
2023-04-29T07:09:23.774Z,10.00
2023-04-29T07:11:51.982Z,9.90
2023-04-29T07:14:20.291Z,10.00
2023-04-29T07:16:48.408Z,9.90
2023-04-29T07:19:18.212Z,10.00
2023-04-29T07:21:48.700Z,10.10
2023-04-29T07:24:17.135Z,10.30
2023-04-29T07:26:46.130Z,10.50
2023-04-29T07:29:14.240Z,10.60
2023-04-29T07:31:42.604Z,10.50
2023-04-29T07:34:10.727Z,10.40
2023-04-29T07:36:40.373Z,10.40
2023-04-29T07:39:08.474Z,10.30
2023-04-29T07:41:36.768Z,10.20
2023-04-29T07:44:04.951Z,10.20
2023-04-29T07:46:33.194Z,10.30
2023-04-29T07:59:05.383Z,10.30
2023-04-29T08:01:35.433Z,10.30
2023-04-29T08:09:03.294Z,10.30
2023-04-29T08:14:05.559Z,10.70
2023-04-29T08:16:34.077Z,10.50
2023-04-29T08:19:02.242Z,10.40
2023-04-29T08:21:32.194Z,10.70
2023-04-29T08:24:00.869Z,11.00
2023-04-29T08:34:01.148Z,11.40
2023-04-29T08:41:30.129Z,11.40
2023-04-29T08:43:58.450Z,11.30
2023-04-29T08:46:27.105Z,11.30
2023-04-29T08:48:56.604Z,11.30
2023-04-29T08:51:26.823Z,11.30
2023-04-29T09:01:29.308Z,11.70
2023-04-29T09:04:03.102Z,11.80
2023-04-29T09:06:33.791Z,11.70
2023-04-29T09:09:03.673Z,11.70
2023-04-29T09:11:32.365Z,11.60
2023-04-29T09:14:01.652Z,11.60
2023-04-29T09:16:29.897Z,11.80
2023-04-29T09:18:58.350Z,12.10
2023-04-29T09:21:27.448Z,12.00
2023-04-29T09:23:57.851Z,12.30
2023-04-29T09:36:40.334Z,10.40
2023-04-29T09:39:12.674Z,10.00
2023-04-29T09:41:41.701Z,10.10
2023-04-29T09:44:10.391Z,9.90
2023-04-29T09:46:38.863Z,9.50
2023-04-29T09:49:24.644Z,9.60
2023-04-29T09:51:56.685Z,9.40
2023-04-29T09:54:28.612Z,9.60
2023-04-29T09:56:57.585Z,10.20
2023-04-29T09:59:26.537Z,10.10
2023-04-29T10:01:55.430Z,10.00
2023-04-29T10:04:24.136Z,9.50
2023-04-29T10:06:54.817Z,9.30
2023-04-29T10:09:23.713Z,9.70
2023-04-29T10:11:54.137Z,10.30
2023-04-29T10:14:22.790Z,10.60
2023-04-29T10:16:52.144Z,10.80
2023-04-29T10:19:27.744Z,11.00
2023-04-29T10:21:56.497Z,11.10
2023-04-29T10:24:25.397Z,11.20
2023-04-29T10:26:58.882Z,11.40
2023-04-29T10:29:29.476Z,11.60
2023-04-29T10:31:58.682Z,11.70
2023-04-29T10:34:27.562Z,11.90
2023-04-29T10:36:56.190Z,11.90
2023-04-29T10:39:28.100Z,11.80
2023-04-29T10:41:58.145Z,11.90
2023-04-29T10:44:26.500Z,11.80
2023-04-29T10:47:10.483Z,11.80
2023-04-29T10:49:38.851Z,11.70
2023-04-29T10:52:07.037Z,11.60
2023-04-29T10:54:37.910Z,11.80
2023-04-29T10:57:07.515Z,11.70
2023-04-29T10:59:46.559Z,11.70
2023-04-29T11:02:16.332Z,11.80
2023-04-29T11:04:59.657Z,11.80
2023-04-29T11:07:28.495Z,11.80
2023-04-29T11:09:56.849Z,11.80
2023-04-29T11:12:26.845Z,11.80
2023-04-29T11:15:01.975Z,11.60
2023-04-29T11:17:36.382Z,11.80
2023-04-29T11:20:05.056Z,11.90
2023-04-29T11:22:34.167Z,12.30
2023-04-29T11:25:05.816Z,12.50
2023-04-29T11:27:40.021Z,12.50
2023-04-29T11:30:09.012Z,12.50
2023-04-29T11:32:37.800Z,12.40
2023-04-29T11:35:09.896Z,11.80
2023-04-29T11:37:38.192Z,11.90
2023-04-29T11:40:07.910Z,11.50
2023-04-29T11:42:37.686Z,11.10
2023-04-29T11:45:07.081Z,11.20
2023-04-29T11:47:35.412Z,11.10
2023-04-29T11:50:04.403Z,11.20
2023-04-29T11:52:32.799Z,11.40
2023-04-29T11:55:03.657Z,11.70
2023-04-29T11:57:31.766Z,11.90
2023-04-29T12:00:01.641Z,11.90
2023-04-29T12:02:33.753Z,11.90
2023-04-29T12:05:02.792Z,11.60
2023-04-29T12:07:31.308Z,11.60
2023-04-29T12:10:00.325Z,11.60
2023-04-29T12:12:29.353Z,11.50
2023-04-29T12:14:57.591Z,11.10
2023-04-29T12:17:27.292Z,10.90
2023-04-29T12:19:55.427Z,10.50
2023-04-29T12:22:23.555Z,10.60
2023-04-29T12:24:54.722Z,10.40
2023-04-29T12:27:25.391Z,9.80
2023-04-29T12:29:53.903Z,10.00
2023-04-29T12:32:24.016Z,10.40
2023-04-29T12:34:54.089Z,10.60
2023-04-29T12:37:23.145Z,10.60
2023-04-29T12:39:55.253Z,10.50
2023-04-29T12:42:23.455Z,10.30
2023-04-29T12:44:54.596Z,10.40
2023-04-29T12:47:23.194Z,10.50
2023-04-29T12:49:51.421Z,10.70
2023-04-29T12:52:21.330Z,10.70
2023-04-29T12:54:49.599Z,10.80
2023-04-29T12:57:18.363Z,10.90
2023-04-29T12:59:46.760Z,10.70
2023-04-29T13:02:15.006Z,10.60
2023-04-29T13:04:43.988Z,10.90
2023-04-29T13:07:13.215Z,10.70
2023-04-29T13:09:42.882Z,10.90
2023-04-29T13:12:10.987Z,10.80
2023-04-29T13:14:39.260Z,10.80
2023-04-29T13:17:10.705Z,10.50
2023-04-29T13:19:51.073Z,10.40
2023-04-29T13:22:20.383Z,10.30
2023-04-29T13:24:50.306Z,10.20
2023-04-29T13:27:18.407Z,10.00
2023-04-29T13:29:46.560Z,9.80
2023-04-29T13:32:17.394Z,9.90
2023-04-29T13:34:46.378Z,9.80
2023-04-29T13:37:14.883Z,9.90
2023-04-29T13:39:45.788Z,9.80
2023-04-29T13:42:17.104Z,9.60
2023-04-29T13:44:52.200Z,9.70
2023-04-29T13:47:26.076Z,9.60
2023-04-29T13:55:43.071Z,9.30
2023-04-29T13:58:37.840Z,9.50
2023-04-29T14:03:11.692Z,9.80
2023-04-29T14:05:40.213Z,9.50
2023-04-29T14:08:08.664Z,9.50
2023-04-29T14:10:36.998Z,9.60
2023-04-29T14:13:06.691Z,9.60
2023-04-29T14:15:35.039Z,9.60
2023-04-29T14:18:03.279Z,9.50
2023-04-29T14:20:31.746Z,9.30
2023-04-29T14:23:00.059Z,9.40
2023-04-29T14:25:31.655Z,9.30
2023-04-29T14:28:01.895Z,9.20
2023-04-29T14:30:39.231Z,9.30
2023-04-29T14:33:09.745Z,9.30
2023-04-29T14:35:37.977Z,9.30
2023-04-29T14:38:06.193Z,9.30
2023-04-29T14:40:40.245Z,9.40
2023-04-29T14:43:08.375Z,9.20
2023-04-29T14:45:38.215Z,9.10
2023-04-29T14:48:09.883Z,9.00
2023-04-29T14:50:38.429Z,9.00
2023-04-29T14:53:08.362Z,9.00
2023-04-29T14:55:36.596Z,8.90
2023-04-29T14:58:05.172Z,8.90
2023-04-29T15:00:36.871Z,9.00
2023-04-29T15:03:06.737Z,8.90
2023-04-29T15:05:35.489Z,8.90
2023-04-29T15:08:06.610Z,8.70
2023-04-29T15:10:34.746Z,8.60
2023-04-29T15:13:03.184Z,8.50
2023-04-29T15:15:31.377Z,8.70
2023-04-29T15:18:02.500Z,9.10
2023-04-29T15:20:32.616Z,9.10
2023-04-29T15:23:00.815Z,9.00
2023-04-29T15:25:29.141Z,9.00
2023-04-29T15:27:59.165Z,8.80
2023-04-29T15:30:27.896Z,8.90
2023-04-29T15:32:56.549Z,8.80
2023-04-29T15:35:25.146Z,8.80
2023-04-29T15:37:54.983Z,8.90
2023-04-29T15:40:26.369Z,8.80
2023-04-29T15:42:56.869Z,8.70
2023-04-29T15:45:25.146Z,8.70
2023-04-29T15:47:53.537Z,8.70
2023-04-29T15:50:22.332Z,8.80
2023-04-29T15:52:52.608Z,8.80
2023-04-29T15:55:22.507Z,9.00
2023-04-29T15:57:51.597Z,8.90
2023-04-29T16:00:19.812Z,9.10
2023-04-29T16:02:50.957Z,9.00
2023-04-29T16:05:20.462Z,9.00
2023-04-29T16:07:48.772Z,8.80
2023-04-29T16:10:17.139Z,8.70
2023-04-29T16:12:47.175Z,8.80
2023-04-29T16:15:15.527Z,8.80
2023-04-29T16:17:44.134Z,8.80
2023-04-29T16:20:12.735Z,8.70
2023-04-29T16:22:41.101Z,8.70
2023-04-29T16:25:09.717Z,8.70
2023-04-29T16:27:39.688Z,8.70
2023-04-29T16:30:10.234Z,8.80
2023-04-29T16:32:38.737Z,8.60
2023-04-29T16:35:07.518Z,8.70
2023-04-29T16:37:36.046Z,8.70
2023-04-29T16:40:04.302Z,7.60
2023-04-29T16:42:32.711Z,7.30
2023-04-29T16:45:00.970Z,7.00
2023-04-29T16:47:30.791Z,7.00
2023-04-29T16:52:30.719Z,6.90
2023-04-29T16:55:01.640Z,7.10
2023-04-29T16:57:29.832Z,7.00
2023-04-29T16:59:58.417Z,7.10
2023-04-29T17:02:26.627Z,7.00
2023-04-29T17:04:56.428Z,6.80
2023-04-29T17:07:24.927Z,7.00
2023-04-29T17:09:53.375Z,7.20
2023-04-29T17:12:21.872Z,7.00
2023-04-29T17:14:50.070Z,7.00
2023-04-29T17:17:18.871Z,7.20
2023-04-29T17:19:50.095Z,7.20
2023-04-29T17:22:19.945Z,7.20
2023-04-29T17:24:48.772Z,7.20
2023-04-29T17:27:16.898Z,7.40
2023-04-29T17:29:48.183Z,7.40
2023-04-29T17:32:17.744Z,7.50
2023-04-29T17:34:45.873Z,7.50
2023-04-29T17:37:14.397Z,7.50
2023-04-29T17:39:44.013Z,7.40
2023-04-29T17:42:12.158Z,7.30
2023-04-29T17:44:40.478Z,7.20
2023-04-29T17:47:12.969Z,7.20
2023-04-29T17:49:41.273Z,7.20
2023-04-29T17:52:09.886Z,7.00
2023-04-29T17:54:40.881Z,7.00
2023-04-29T17:57:10.487Z,7.00
2023-04-29T17:59:45.323Z,7.00
2023-04-29T18:02:16.032Z,7.00
2023-04-29T18:04:44.735Z,6.80
2023-04-29T18:07:14.074Z,6.90
2023-04-29T18:09:42.202Z,6.90
2023-04-29T18:12:11.787Z,6.80
2023-04-29T18:14:42.627Z,6.70
2023-04-29T18:17:10.879Z,6.50
2023-04-29T18:19:39.504Z,6.60
2023-04-29T18:22:10.844Z,6.40
2023-04-29T18:24:39.048Z,6.40
2023-04-29T18:27:07.326Z,6.50
2023-04-29T18:29:37.072Z,6.60
2023-04-29T18:32:07.978Z,6.40
2023-04-29T18:34:36.363Z,6.40
2023-04-29T18:37:05.777Z,6.50
2023-04-29T18:39:34.146Z,6.50
2023-04-29T18:42:04.620Z,6.20
2023-04-29T18:44:35.547Z,6.20
2023-04-29T18:47:06.911Z,6.20
2023-04-29T18:49:38.039Z,6.00
2023-04-29T18:52:06.883Z,6.00
2023-04-29T18:54:35.035Z,5.90
2023-04-29T18:57:05.566Z,5.90
2023-04-29T18:59:44.732Z,6.10
2023-04-29T19:02:15.427Z,6.00
2023-04-29T19:04:45.336Z,6.00
2023-04-29T19:07:13.536Z,5.90
2023-04-29T19:09:42.400Z,5.80
2023-04-29T19:12:13.791Z,5.90
2023-04-29T19:14:42.422Z,5.80
2023-04-29T19:17:11.368Z,5.80
2023-04-29T19:19:41.556Z,5.60
2023-04-29T19:22:15.699Z,5.80
2023-04-29T19:24:43.839Z,5.70
2023-04-29T19:27:12.209Z,5.60
2023-04-29T19:29:40.380Z,5.60
2023-04-29T19:32:09.124Z,5.60
2023-04-29T19:34:37.320Z,5.50
2023-04-29T19:37:12.233Z,5.50
2023-04-29T19:39:40.599Z,5.30
2023-04-29T19:42:08.816Z,5.30
2023-04-29T19:44:37.215Z,5.20
2023-04-29T19:47:05.656Z,5.20
2023-04-29T19:49:41.912Z,5.10
2023-04-29T19:52:11.594Z,5.10
2023-04-29T19:54:41.145Z,5.00
2023-04-29T19:57:11.864Z,5.00
2023-04-29T19:59:40.244Z,5.00
2023-04-29T20:02:08.979Z,5.00
2023-04-29T20:04:39.992Z,5.00
2023-04-29T20:07:08.172Z,4.90
2023-04-29T20:09:37.955Z,5.10
2023-04-29T20:12:08.306Z,5.10
2023-04-29T20:14:39.491Z,5.10
2023-04-29T20:17:07.832Z,5.10
2023-04-29T20:19:36.093Z,5.00
2023-04-29T20:22:04.263Z,5.00
2023-04-29T20:24:32.561Z,5.10
2023-04-29T20:27:03.846Z,5.20
2023-04-29T20:29:31.984Z,5.10
2023-04-29T20:32:00.285Z,5.10
2023-04-29T20:34:32.301Z,5.10
2023-04-29T20:37:00.450Z,5.10
2023-04-29T20:39:28.770Z,5.00
2023-04-29T20:41:57.721Z,5.00
2023-04-29T20:44:27.624Z,4.90
2023-04-29T20:46:55.769Z,4.90
2023-04-29T20:49:24.879Z,4.90
2023-04-29T20:51:53.307Z,5.80
2023-04-29T20:54:24.232Z,4.90
2023-04-29T20:56:52.448Z,4.90
2023-04-29T20:59:20.614Z,4.80
2023-04-29T21:01:52.111Z,4.80
2023-04-29T21:04:21.198Z,4.80
2023-04-29T21:06:50.829Z,4.80
2023-04-29T21:09:19.881Z,4.90
2023-04-29T21:11:48.594Z,4.90
2023-04-29T21:14:16.794Z,5.10
2023-04-29T21:16:47.163Z,5.00
2023-04-29T21:19:16.915Z,4.90
2023-04-29T21:21:45.177Z,4.90
2023-04-29T21:24:13.321Z,5.00
2023-04-29T21:26:41.483Z,5.00
2023-04-29T21:29:09.849Z,5.00
2023-04-29T21:31:38.066Z,5.00
2023-04-29T21:34:06.354Z,5.10
2023-04-29T21:36:36.204Z,5.00
2023-04-29T21:39:04.412Z,5.00
2023-04-29T21:41:40.190Z,5.00
2023-04-29T21:44:11.288Z,5.10
2023-04-29T21:46:39.590Z,5.00
2023-04-29T21:49:14.132Z,5.00
2023-04-29T21:51:43.792Z,4.80
2023-04-29T21:54:14.589Z,4.80
2023-04-29T21:56:42.781Z,4.80
2023-04-29T21:59:11.194Z,4.90
2023-04-29T22:01:49.218Z,4.90
2023-04-29T22:04:17.772Z,4.90
2023-04-29T22:06:47.408Z,4.90
2023-04-29T22:09:16.302Z,4.80
2023-04-29T22:11:45.124Z,4.80
2023-04-29T22:14:13.635Z,4.80
2023-04-29T22:16:41.863Z,4.80
2023-04-29T22:19:10.255Z,4.80
2023-04-29T22:21:40.903Z,4.80
2023-04-29T22:24:10.650Z,5.90
2023-04-29T22:26:42.022Z,4.90
2023-04-29T22:29:10.164Z,4.80
2023-04-29T22:31:40.110Z,4.80
2023-04-29T22:34:08.298Z,4.80
2023-04-29T22:36:36.635Z,4.80
2023-04-29T22:39:04.873Z,4.70
2023-04-29T22:41:37.172Z,4.80
2023-04-29T22:44:05.521Z,4.60
2023-04-29T22:46:34.436Z,4.60
2023-04-29T22:49:04.230Z,4.70
2023-04-29T22:51:32.840Z,4.70
2023-04-29T22:54:01.040Z,4.60
2023-04-29T22:56:29.860Z,4.60
2023-04-29T22:58:59.533Z,4.50
2023-04-29T23:01:27.902Z,4.30
2023-04-29T23:03:56.251Z,4.30
2023-04-29T23:06:24.648Z,4.50
2023-04-29T23:08:56.514Z,4.30
2023-04-29T23:11:24.636Z,4.50
2023-04-29T23:13:52.997Z,4.40
2023-04-29T23:16:22.663Z,4.50
2023-04-29T23:18:50.848Z,4.20
2023-04-29T23:21:19.145Z,3.80
2023-04-29T23:23:47.247Z,3.70
2023-04-29T23:26:16.398Z,3.80
2023-04-29T23:28:44.730Z,3.80
2023-04-29T23:31:12.899Z,3.70
2023-04-29T23:33:42.490Z,3.60
2023-04-29T23:36:13.440Z,3.70
2023-04-29T23:38:42.092Z,3.30
2023-04-29T23:41:10.222Z,3.20
2023-04-29T23:43:38.348Z,3.50
2023-04-29T23:46:06.659Z,3.40
2023-04-29T23:48:34.872Z,3.20
2023-04-29T23:51:04.575Z,3.20
2023-04-29T23:53:33.199Z,2.90
2023-04-29T23:56:01.631Z,3.00
2023-04-29T23:58:29.823Z,2.80
